Time;durP1;ratioP1;P1;durP2;ratioP2;P2;SDS_P1;SDS_P2;PMS_P1;PMS_P2;Temp;Humidity;BMP_temperature;BMP_pressure;BME280_temperature;BME280_humidity;BME280_pressure;Samples;Min_cycle;Max_cycle;Signal;HPM_P1;HPM_P2
2021/01/13 00:01:42;;;;;;;8.97;1.50;;;;;;;1.98;100.00;100302.56;5056642;28;20222;-74
2021/01/13 00:04:09;;;;;;;9.23;1.83;;;;;;;2.08;100.00;100294.81;5056520;28;20228;-74
2021/01/13 00:06:37;;;;;;;5.77;1.83;;;;;;;1.99;100.00;100304.19;5073638;28;20236;-74
2021/01/13 00:09:08;;;;;;;3.00;1.20;;;;;;;1.97;100.00;100308.16;5073794;28;20242;-74
2021/01/13 00:11:36;;;;;;;6.13;1.90;;;;;;;1.99;100.00;100314.09;5057292;28;20297;-74
2021/01/13 00:14:04;;;;;;;10.50;1.67;;;;;;;1.87;100.00;100317.75;5057200;28;20202;-74
2021/01/13 00:16:30;;;;;;;5.40;1.50;;;;;;;1.93;100.00;100317.69;5072929;28;20242;-74
2021/01/13 00:19:00;;;;;;;3.57;1.50;;;;;;;2.00;100.00;100313.06;5057727;28;20182;-74
2021/01/13 00:21:28;;;;;;;8.33;1.60;;;;;;;2.02;100.00;100303.75;5089231;28;20774;-74
2021/01/13 00:23:56;;;;;;;6.83;1.70;;;;;;;1.95;100.00;100311.06;5041041;28;20754;-74
2021/01/13 00:26:22;;;;;;;8.70;1.97;;;;;;;1.96;100.00;100311.88;5072710;28;20218;-75
2021/01/13 00:28:51;;;;;;;8.53;1.90;;;;;;;1.94;100.00;100324.66;5056789;28;20174;-74
2021/01/13 00:31:16;;;;;;;9.13;1.87;;;;;;;2.02;100.00;100317.16;5072560;28;20226;-74
2021/01/13 00:33:46;;;;;;;3.43;1.50;;;;;;;1.97;100.00;100322.34;5056613;28;20565;-74
2021/01/13 00:36:25;;;;;;;9.73;1.70;;;;;;;2.09;100.00;100325.91;5072170;28;20607;-74
2021/01/13 00:38:53;;;;;;;10.70;1.70;;;;;;;2.06;100.00;100334.38;5073182;28;20182;-74
2021/01/13 00:41:18;;;;;;;7.30;1.63;;;;;;;1.91;100.00;100331.28;5072946;28;20232;-74
2021/01/13 00:43:45;;;;;;;6.83;1.97;;;;;;;2.05;100.00;100327.41;5039603;28;20210;-74
2021/01/13 00:46:10;;;;;;;6.87;1.50;;;;;;;2.12;100.00;100325.44;5072231;28;20246;-74
2021/01/13 00:48:36;;;;;;;8.33;2.17;;;;;;;2.15;100.00;100314.28;5073353;28;20205;-74
2021/01/13 00:51:07;;;;;;;6.33;1.17;;;;;;;2.08;100.00;100321.59;5056861;28;20237;-74
2021/01/13 00:53:35;;;;;;;7.77;1.30;;;;;;;2.01;100.00;100318.16;5057243;28;20222;-74
2021/01/13 00:56:02;;;;;;;5.47;1.30;;;;;;;1.95;100.00;100315.59;5071861;28;20642;-74
2021/01/13 00:58:30;;;;;;;3.87;1.20;;;;;;;2.02;100.00;100316.34;5073101;28;20703;-74
2021/01/13 01:00:59;;;;;;;7.93;1.30;;;;;;;1.89;100.00;100321.03;5072690;28;20233;-74
2021/01/13 01:03:27;;;;;;;6.03;1.03;;;;;;;1.95;100.00;100315.59;5074167;28;20241;-74
2021/01/13 01:05:52;;;;;;;4.60;1.40;;;;;;;1.91;100.00;100319.78;5089848;28;20218;-74
2021/01/13 01:08:18;;;;;;;4.93;1.43;;;;;;;1.89;100.00;100329.03;5057416;28;20182;-74
2021/01/13 01:10:48;;;;;;;3.53;1.23;;;;;;;1.91;100.00;100321.63;5056273;28;20222;-74
2021/01/13 01:13:16;;;;;;;8.47;1.30;;;;;;;1.99;100.00;100327.47;5074219;28;20194;-74
2021/01/13 01:15:42;;;;;;;5.43;1.50;;;;;;;1.99;100.00;100332.84;5056143;28;20345;-74
2021/01/13 01:18:10;;;;;;;9.03;1.40;;;;;;;2.06;100.00;100342.41;5039846;28;20201;-74
2021/01/13 01:20:36;;;;;;;9.53;1.73;;;;;;;2.05;100.00;100348.84;5055841;28;20245;-74
2021/01/13 01:23:02;;;;;;;8.33;1.40;;;;;;;2.05;100.00;100350.66;5073878;28;20241;-74
2021/01/13 01:25:32;;;;;;;5.23;1.60;;;;;;;1.97;100.00;100369.72;5059126;28;20316;-74
2021/01/13 01:27:59;;;;;;;8.70;1.87;;;;;;;2.03;100.00;100374.19;5060733;28;20273;-74
2021/01/13 01:30:25;;;;;;;6.33;1.60;;;;;;;2.14;100.00;100368.06;5059547;28;20212;-74
2021/01/13 01:32:51;;;;;;;6.87;1.40;;;;;;;2.27;100.00;100371.38;5076519;28;20227;-74
2021/01/13 01:35:16;;;;;;;4.23;1.53;;;;;;;2.19;100.00;100374.38;5075642;28;20186;-74
2021/01/13 01:37:42;;;;;;;8.10;1.20;;;;;;;2.01;100.00;100376.28;5076527;28;20660;-74
2021/01/13 01:40:09;;;;;;;6.90;1.50;;;;;;;2.26;100.00;100361.72;5075624;28;20652;-74
2021/01/13 01:42:37;;;;;;;5.03;1.30;;;;;;;2.18;100.00;100374.59;5076350;28;20714;-74
2021/01/13 01:45:03;;;;;;;6.50;2.20;;;;;;;2.35;100.00;100361.19;5075346;28;20201;-74
2021/01/13 01:47:57;;;;;;;9.03;1.90;;;;;;;2.34;100.00;100362.25;5076032;28;20220;-74
2021/01/13 01:50:22;;;;;;;3.47;1.40;;;;;;;2.50;100.00;100353.56;5092168;28;20190;-73
2021/01/13 01:52:51;;;;;;;5.33;2.07;;;;;;;2.41;100.00;100356.78;5059682;28;20174;-73
2021/01/13 01:55:16;;;;;;;6.50;2.00;;;;;;;2.43;100.00;100346.66;5075122;28;20194;-72
2021/01/13 01:57:43;;;;;;;9.73;2.23;;;;;;;2.39;100.00;100350.84;5076233;28;20205;-72
2021/01/13 02:00:18;;;;;;;7.30;2.10;;;;;;;2.27;100.00;100351.81;5059657;28;20213;-72
2021/01/13 02:02:55;;;;;;;12.87;2.00;;;;;;;2.26;100.00;100345.66;5056907;28;20329;-72
2021/01/13 02:05:23;;;;;;;6.60;1.70;;;;;;;2.13;100.00;100347.72;5074152;28;20761;-72
2021/01/13 02:07:49;;;;;;;8.40;2.13;;;;;;;2.33;100.00;100341.03;5043547;28;20265;-75
2021/01/13 02:10:17;;;;;;;5.77;1.80;;;;;;;2.26;100.00;100337.63;5092454;28;20204;-72
2021/01/13 02:12:50;;;;;;;6.63;1.73;;;;;;;2.16;100.00;100329.34;5092652;28;20167;-75
2021/01/13 02:15:17;;;;;;;4.13;1.80;;;;;;;2.10;100.00;100326.72;5042399;28;20205;-74
2021/01/13 02:17:42;;;;;;;6.83;1.50;;;;;;;1.97;100.00;100332.25;5059432;28;20183;-74
2021/01/13 02:20:16;;;;;;;8.87;1.87;;;;;;;1.98;100.00;100326.69;5059628;28;20182;-74
2021/01/13 02:22:56;;;;;;;5.30;1.70;;;;;;;2.02;100.00;100333.22;5095129;28;20236;-75
2021/01/13 02:25:44;;;;;;;5.33;1.73;;;;;;;1.99;100.00;100322.94;5060477;28;20246;-75
2021/01/13 02:28:11;;;;;;;8.93;2.03;;;;;;;2.01;100.00;100318.16;5093764;28;20681;-74
2021/01/13 02:30:42;;;;;;;4.13;1.53;;;;;;;1.96;100.00;100312.69;5058831;28;20222;-74
2021/01/13 02:33:22;;;;;;;6.40;1.73;;;;;;;1.97;100.00;100313.50;5075603;28;20182;-74
2021/01/13 02:36:06;;;;;;;8.73;1.60;;;;;;;1.93;100.00;100309.66;5057295;28;20217;-74
2021/01/13 02:38:32;;;;;;;8.03;1.90;;;;;;;1.91;100.00;100309.88;5092110;28;20576;-74
2021/01/13 02:40:58;;;;;;;8.50;1.40;;;;;;;1.84;100.00;100308.31;5074180;28;20218;-74
2021/01/13 02:43:23;;;;;;;4.43;1.40;;;;;;;1.84;100.00;100307.50;5091874;28;20221;-74
2021/01/13 02:45:52;;;;;;;11.97;1.57;;;;;;;1.81;100.00;100299.91;5058457;28;20303;-74
2021/01/13 02:48:20;;;;;;;7.20;1.60;;;;;;;1.82;100.00;100314.94;5059258;28;20226;-74
2021/01/13 02:50:56;;;;;;;7.73;1.17;;;;;;;1.83;100.00;100301.31;5074715;28;20225;-74
2021/01/13 02:53:37;;;;;;;7.13;1.30;;;;;;;1.85;100.00;100287.72;5075446;28;20209;-74
2021/01/13 02:56:05;;;;;;;8.23;1.60;;;;;;;1.82;100.00;100309.59;5090992;28;20582;-74
2021/01/13 02:58:32;;;;;;;8.67;1.90;;;;;;;1.83;100.00;100295.97;5074851;28;20256;-74
2021/01/13 03:01:01;;;;;;;8.60;1.73;;;;;;;1.79;100.00;100304.69;5090864;28;20229;-74
2021/01/13 03:03:29;;;;;;;9.53;1.57;;;;;;;1.89;100.00;100304.97;5074657;28;20222;-74
2021/01/13 03:05:55;;;;;;;4.40;1.30;;;;;;;1.88;100.00;100303.34;5090555;28;20649;-74
2021/01/13 03:08:25;;;;;;;8.83;1.33;;;;;;;1.79;100.00;100305.50;5041930;28;20182;-74
2021/01/13 03:10:53;;;;;;;6.20;1.23;;;;;;;1.77;100.00;100307.56;5042463;28;20214;-74
2021/01/13 03:13:19;;;;;;;10.27;1.70;;;;;;;1.79;100.00;100315.38;5074950;28;20194;-73
2021/01/13 03:15:44;;;;;;;8.17;1.60;;;;;;;1.89;100.00;100311.16;5073560;28;20228;-74
2021/01/13 03:18:36;;;;;;;9.37;1.83;;;;;;;1.90;100.00;100317.31;5057968;28;20182;-74
2021/01/13 03:21:08;;;;;;;10.60;1.20;;;;;;;1.98;100.00;100313.28;5077290;28;20755;-73
2021/01/13 03:24:12;;;;;;;7.30;1.63;;;;;;;2.00;100.00;100315.75;5074831;28;20207;-74
2021/01/13 03:26:39;;;;;;;7.73;1.60;;;;;;;2.02;100.00;100317.16;5075683;28;20224;-74
2021/01/13 03:29:04;;;;;;;7.50;1.57;;;;;;;2.07;100.00;100317.28;5058153;28;20178;-74
2021/01/13 03:31:32;;;;;;;6.50;1.40;;;;;;;2.13;100.00;100318.25;5074062;28;20626;-74
2021/01/13 03:34:34;;;;;;;8.43;1.33;;;;;;;2.22;100.00;100323.06;5057706;28;20221;-74
2021/01/13 03:37:05;;;;;;;5.80;1.40;;;;;;;2.21;100.00;100332.13;4996581;28;20332;-74
2021/01/13 03:39:38;;;;;;;3.27;1.10;;;;;;;2.12;100.00;100328.13;5078147;28;20198;-73
2021/01/13 03:42:07;;;;;;;7.93;1.80;;;;;;;2.17;100.00;100333.63;5037469;28;20225;-73
2021/01/13 03:44:38;;;;;;;3.17;1.30;;;;;;;2.20;100.00;100333.19;5070384;28;20302;-73
2021/01/13 03:47:29;;;;;;;2.43;1.10;;;;;;;2.25;100.00;100327.94;5067069;28;20276;-73
2021/01/13 03:49:55;;;;;;;5.23;1.10;;;;;;;2.23;100.00;100330.03;5055480;28;20648;-74
2021/01/13 03:52:20;;;;;;;7.10;1.30;;;;;;;2.24;100.00;100331.69;5088666;28;20225;-73
2021/01/13 03:54:47;;;;;;;6.57;1.60;;;;;;;2.29;100.00;100329.16;5055530;28;20851;-73
2021/01/13 03:57:13;;;;;;;6.73;1.80;;;;;;;2.25;100.00;100327.94;5068659;28;20215;-74
2021/01/13 04:00:01;;;;;;;8.73;1.80;;;;;;;2.19;100.00;100326.19;5033723;28;20253;-74
2021/01/13 04:02:56;;;;;;;4.37;1.40;;;;;;;2.15;100.00;100338.41;5050133;28;20223;-74
2021/01/13 04:05:29;;;;;;;7.07;1.50;;;;;;;2.39;100.00;100324.84;5035888;28;20223;-74
2021/01/13 04:07:57;;;;;;;4.17;1.70;;;;;;;2.55;100.00;100312.69;5034231;28;20594;-74
2021/01/13 04:10:25;;;;;;;6.60;1.60;;;;;;;2.43;100.00;100322.53;5033037;28;20187;-71
2021/01/13 04:12:51;;;;;;;5.40;1.73;;;;;;;2.44;100.00;100327.69;5054087;28;20187;-74
2021/01/13 04:15:21;;;;;;;4.33;1.40;;;;;;;2.49;100.00;100313.59;5068813;28;20211;-74
2021/01/13 04:17:57;;;;;;;5.20;1.70;;;;;;;2.32;100.00;100317.97;5038238;28;20178;-74
2021/01/13 04:20:23;;;;;;;4.70;1.70;;;;;;;2.30;100.00;100317.38;5037241;28;20222;-74
2021/01/13 04:22:49;;;;;;;5.63;1.53;;;;;;;2.46;100.00;100308.69;5053298;28;20234;-74
2021/01/13 04:25:17;;;;;;;6.73;1.97;;;;;;;2.41;100.00;100316.59;5069220;28;20231;-74
2021/01/13 04:27:46;;;;;;;7.37;1.80;;;;;;;2.46;100.00;100314.06;5069440;28;20195;-74
2021/01/13 04:30:15;;;;;;;7.57;1.77;;;;;;;2.43;100.00;100314.50;5035132;28;20660;-74
2021/01/13 04:32:40;;;;;;;5.77;2.00;;;;;;;2.41;100.00;100316.59;5036757;28;20179;-74
2021/01/13 04:35:09;;;;;;;6.13;1.60;;;;;;;2.45;100.00;100309.72;5068812;28;20225;-74
2021/01/13 04:37:35;;;;;;;6.10;1.70;;;;;;;2.44;100.00;100308.94;5037630;28;20185;-74
2021/01/13 04:40:31;;;;;;;5.43;1.83;;;;;;;2.45;100.00;100296.34;5036858;28;20175;-74
2021/01/13 04:43:01;;;;;;;5.20;1.77;;;;;;;2.51;100.00;100300.78;5034772;28;20226;-74
2021/01/13 04:45:46;;;;;;;8.87;3.03;;;;;;;2.54;100.00;100278.88;5068657;28;20223;-74
2021/01/13 04:48:13;;;;;;;10.83;1.90;;;;;;;2.56;100.00;100288.31;5019464;28;20183;-76
2021/01/13 04:50:45;;;;;;;7.07;2.03;;;;;;;2.48;100.00;100280.63;5034548;28;20268;-74
2021/01/13 04:53:23;;;;;;;7.00;1.57;;;;;;;2.58;100.00;100283.53;5045038;28;20183;-74
2021/01/13 04:55:58;;;;;;;2.97;1.63;;;;;;;2.54;100.00;100289.59;5052290;28;20225;-74
2021/01/13 04:58:26;;;;;;;4.83;1.70;;;;;;;2.50;100.00;100294.59;5033504;28;20575;-74
2021/01/13 05:01:15;;;;;;;7.43;1.50;;;;;;;2.53;100.00;100275.41;5072088;28;20229;-74
2021/01/13 05:03:41;;;;;;;4.17;1.60;;;;;;;2.57;100.00;100289.97;5073113;28;20218;-74
2021/01/13 05:06:09;;;;;;;2.87;1.40;;;;;;;2.53;100.00;100291.47;5073280;28;20726;-74
2021/01/13 05:08:35;;;;;;;4.07;1.50;;;;;;;2.63;100.00;100288.22;5072812;28;20187;-74
2021/01/13 05:11:19;;;;;;;5.47;1.40;;;;;;;2.66;100.00;100287.78;5063407;28;20267;-74
2021/01/13 05:13:46;;;;;;;4.17;1.57;;;;;;;2.56;100.00;100282.16;5060233;28;20565;-74
2021/01/13 05:16:14;;;;;;;3.47;1.50;;;;;;;2.59;100.00;100287.06;5059584;28;20270;-74
2021/01/13 05:18:56;;;;;;;4.10;1.40;;;;;;;2.63;100.00;100275.63;5093861;28;20726;-77
2021/01/13 05:21:27;;;;;;;3.80;1.40;;;;;;;2.67;100.00;100265.28;5060175;28;20695;-74
2021/01/13 05:23:56;;;;;;;4.67;1.60;;;;;;;2.61;100.00;100271.56;5076635;28;20213;-74
2021/01/13 05:26:25;;;;;;;5.20;2.13;;;;;;;2.60;100.00;100267.25;5074712;28;20221;-74
2021/01/13 05:28:57;;;;;;;5.17;2.40;;;;;;;2.67;100.00;100262.59;5073733;28;20597;-74
2021/01/13 05:31:24;;;;;;;4.97;1.50;;;;;;;2.72;100.00;100261.66;5088681;28;20317;-74
2021/01/13 05:33:54;;;;;;;4.40;1.70;;;;;;;2.66;100.00;100263.66;5093056;28;20334;-74
2021/01/13 05:36:22;;;;;;;4.27;1.57;;;;;;;2.58;100.00;100254.06;5092621;28;20301;-74
2021/01/13 05:39:08;;;;;;;2.33;1.50;;;;;;;2.59;100.00;100260.25;5093267;28;20265;-75
2021/01/13 05:41:38;;;;;;;5.00;1.90;;;;;;;2.47;100.00;100254.06;5076341;28;20222;-73
2021/01/13 05:44:07;;;;;;;4.23;1.30;;;;;;;2.38;100.00;100247.38;5076286;28;20252;-74
2021/01/13 05:46:45;;;;;;;3.37;1.53;;;;;;;2.28;100.00;100259.72;5075702;28;20279;-74
2021/01/13 05:49:11;;;;;;;2.37;1.53;;;;;;;2.27;100.00;100250.84;5076227;28;20186;-74
2021/01/13 05:51:37;;;;;;;3.87;1.40;;;;;;;2.21;100.00;100249.09;5075338;28;20292;-74
2021/01/13 05:54:05;;;;;;;3.87;1.73;;;;;;;2.25;100.00;100247.59;5076433;28;20201;-74
2021/01/13 05:56:37;;;;;;;2.07;1.50;;;;;;;2.28;100.00;100242.59;5072169;28;20206;-74
2021/01/13 05:59:07;;;;;;;3.20;1.87;;;;;;;2.29;100.00;100244.25;5090701;28;20194;-74
2021/01/13 06:01:32;;;;;;;2.67;1.53;;;;;;;2.14;100.00;100245.69;5071402;28;20215;-74
2021/01/13 06:03:58;;;;;;;3.67;1.77;;;;;;;2.23;100.00;100251.56;5082385;28;20586;-74
2021/01/13 06:06:28;;;;;;;3.83;1.63;;;;;;;2.20;100.00;100239.44;5091511;28;20263;-74
2021/01/13 06:08:56;;;;;;;3.27;1.60;;;;;;;2.17;100.00;100255.97;5059653;28;20594;-74
2021/01/13 06:11:23;;;;;;;1.83;1.50;;;;;;;2.30;100.00;100250.41;5059172;28;20226;-74
2021/01/13 06:13:51;;;;;;;4.53;1.77;;;;;;;2.33;100.00;100249.97;5058745;28;20190;-74
2021/01/13 06:16:19;;;;;;;2.57;1.70;;;;;;;2.43;100.00;100250.19;5075323;28;20218;-73
2021/01/13 06:18:44;;;;;;;4.33;2.00;;;;;;;2.29;100.00;100244.25;5058482;28;20197;-74
2021/01/13 06:21:13;;;;;;;4.13;2.10;;;;;;;2.35;100.00;100237.97;5057951;28;20240;-74
2021/01/13 06:23:50;;;;;;;6.60;2.20;;;;;;;2.29;100.00;100251.47;5087383;28;20631;-74
2021/01/13 06:26:18;;;;;;;1.80;1.40;;;;;;;2.23;100.00;100252.38;5054797;28;20224;-73
2021/01/13 06:29:13;;;;;;;5.77;2.00;;;;;;;2.30;100.00;100250.41;5036632;28;20183;-73
2021/01/13 06:31:43;;;;;;;3.17;1.73;;;;;;;2.35;100.00;100242.50;5064532;28;20348;-74
2021/01/13 06:34:32;;;;;;;4.80;2.13;;;;;;;2.38;100.00;100250.06;5055070;28;20242;-75
2021/01/13 06:37:19;;;;;;;3.67;2.00;;;;;;;2.34;100.00;100247.06;5055836;28;20311;-74
2021/01/13 06:39:45;;;;;;;5.27;2.10;;;;;;;2.35;100.00;100247.88;5051491;28;20179;-74
2021/01/13 06:42:11;;;;;;;2.83;2.07;;;;;;;2.40;100.00;100259.53;5032118;28;20360;-74
2021/01/13 06:44:44;;;;;;;5.57;2.27;;;;;;;2.44;100.00;100254.53;5034624;28;20208;-74
2021/01/13 06:47:12;;;;;;;5.73;2.30;;;;;;;2.55;100.00;100248.38;5051546;28;20242;-74
2021/01/13 06:49:38;;;;;;;3.87;1.90;;;;;;;2.56;100.00;100250.00;5053026;28;20236;-75
2021/01/13 06:52:05;;;;;;;4.67;2.20;;;;;;;2.50;100.00;100256.28;5067583;28;20222;-75
2021/01/13 06:54:30;;;;;;;4.77;2.40;;;;;;;2.63;100.00;100256.88;5038079;28;20202;-74
2021/01/13 06:56:57;;;;;;;4.30;2.20;;;;;;;2.63;100.00;100261.44;5071081;28;20226;-74
2021/01/13 06:59:24;;;;;;;6.13;2.27;;;;;;;2.66;100.00;100247.59;5071861;28;20309;-75
2021/01/13 07:01:57;;;;;;;7.23;2.53;;;;;;;2.74;100.00;100248.03;5071104;28;20247;-74
2021/01/13 07:04:23;;;;;;;4.93;2.43;;;;;;;2.70;100.00;100253.03;5071171;28;20322;-74
2021/01/13 07:07:05;;;;;;;5.90;2.70;;;;;;;2.78;100.00;100255.41;5070739;28;20226;-74
2021/01/13 07:09:48;;;;;;;7.53;2.70;;;;;;;2.79;100.00;100250.84;5038472;28;20649;-74
2021/01/13 07:12:18;;;;;;;5.07;2.67;;;;;;;2.76;100.00;100267.38;5070764;28;20619;-74
2021/01/13 07:14:48;;;;;;;4.73;2.83;;;;;;;2.87;100.00;100255.84;5071574;28;20206;-75
2021/01/13 07:17:24;;;;;;;4.53;2.20;;;;;;;2.86;100.00;100249.69;5053950;28;20222;-74
2021/01/13 07:19:53;;;;;;;4.73;2.33;;;;;;;2.73;100.00;100244.53;5071745;28;20182;-74
2021/01/13 07:22:20;;;;;;;9.30;2.80;;;;;;;2.78;100.00;100260.75;5037850;28;20219;-74
2021/01/13 07:24:46;;;;;;;5.27;2.20;;;;;;;2.75;100.00;100255.84;5055108;28;20199;-75
2021/01/13 07:27:14;;;;;;;4.70;2.50;;;;;;;2.75;100.00;100260.41;5072588;28;20245;-74
2021/01/13 07:29:40;;;;;;;7.57;2.60;;;;;;;2.80;100.00;100266.72;5073088;28;20562;-72
2021/01/13 07:32:13;;;;;;;5.73;2.57;;;;;;;2.85;100.00;100261.44;5055823;28;20223;-73
2021/01/13 07:34:44;;;;;;;4.87;2.30;;;;;;;2.82;100.00;100267.28;5056820;28;20199;-72
2021/01/13 07:37:20;;;;;;;5.40;2.40;;;;;;;2.85;100.00;100272.16;5073993;28;20226;-74
2021/01/13 07:39:50;;;;;;;5.33;2.50;;;;;;;2.83;100.00;100249.31;5075254;28;20188;-73
2021/01/13 07:42:35;;;;;;;6.83;2.73;;;;;;;2.91;100.00;100254.34;5090062;28;20219;-73
2021/01/13 07:45:27;;;;;;;4.03;2.63;;;;;;;2.92;100.00;100256.78;5070690;28;20207;-73
2021/01/13 07:48:05;;;;;;;7.30;2.97;;;;;;;2.92;100.00;100246.06;5051603;28;20217;-74
2021/01/13 07:50:30;;;;;;;6.53;2.30;;;;;;;2.87;100.00;100245.13;5070826;28;20219;-73
2021/01/13 07:53:02;;;;;;;6.90;2.67;;;;;;;2.83;100.00;100249.31;5072232;28;20555;-73
2021/01/13 07:55:31;;;;;;;5.30;2.57;;;;;;;2.97;100.00;100254.22;5054925;28;20235;-72
2021/01/13 07:58:03;;;;;;;6.33;2.90;;;;;;;2.97;100.00;100256.91;5089607;28;20187;-73
2021/01/13 08:00:38;;;;;;;5.17;2.53;;;;;;;2.90;100.00;100250.84;5055433;28;20179;-73
2021/01/13 08:03:41;;;;;;;5.77;3.03;;;;;;;2.97;100.00;100248.88;5071946;28;20293;-73
2021/01/13 08:06:28;;;;;;;9.97;3.20;;;;;;;2.88;100.00;100261.00;5074802;28;20241;-74
2021/01/13 08:09:09;;;;;;;6.80;3.40;;;;;;;2.83;100.00;100255.50;5078042;28;20186;-73
2021/01/13 08:11:46;;;;;;;7.77;3.30;;;;;;;2.82;100.00;100256.56;5081277;28;20230;-73
2021/01/13 08:14:53;;;;;;;6.07;3.67;;;;;;;2.99;100.00;100254.81;5070958;28;20195;-73
2021/01/13 08:18:04;;;;;;;6.87;3.47;;;;;;;2.97;100.00;100243.50;5086700;28;20218;-73
2021/01/13 08:20:53;;;;;;;6.77;3.30;;;;;;;3.03;100.00;100257.84;5087123;28;20210;-73
2021/01/13 08:23:26;;;;;;;5.50;3.17;;;;;;;3.00;100.00;100251.06;5088823;28;20668;-73
2021/01/13 08:25:54;;;;;;;9.43;3.43;;;;;;;3.05;100.00;100251.19;5071144;28;20242;-73
2021/01/13 08:28:20;;;;;;;6.67;3.10;;;;;;;3.03;100.00;100249.81;5053433;28;20232;-73
2021/01/13 08:30:49;;;;;;;9.13;3.40;;;;;;;3.05;100.00;100251.19;5069571;28;20218;-73
2021/01/13 08:33:27;;;;;;;6.07;3.47;;;;;;;2.92;100.00;100246.06;5052663;28;20178;-73
2021/01/13 08:35:57;;;;;;;5.50;3.10;;;;;;;3.01;100.00;100238.50;5052661;28;20225;-73
2021/01/13 08:38:23;;;;;;;7.20;2.97;;;;;;;3.07;100.00;100228.44;5070381;28;20183;-74
2021/01/13 08:40:49;;;;;;;7.93;3.13;;;;;;;3.08;100.00;100240.00;5086338;28;20298;-74
2021/01/13 08:43:15;;;;;;;3.83;2.90;;;;;;;3.14;100.00;100231.00;5071117;28;20210;-73
2021/01/13 08:45:48;;;;;;;7.23;3.23;;;;;;;3.21;100.00;100229.84;5052706;28;20598;-74
2021/01/13 08:48:21;;;;;;;8.40;3.70;;;;;;;3.22;100.00;100230.63;5070490;28;20178;-73
2021/01/13 08:51:05;;;;;;;5.07;3.37;;;;;;;3.16;100.00;100231.59;5070353;28;20249;-74
2021/01/13 08:53:31;;;;;;;5.40;2.97;;;;;;;3.17;100.00;100238.59;5087690;28;20210;-74
2021/01/13 08:55:59;;;;;;;5.63;3.47;;;;;;;3.26;100.00;100235.31;5036977;28;20257;-74
2021/01/13 08:58:28;;;;;;;8.10;3.83;;;;;;;3.20;100.00;100216.66;5070459;28;20282;-73
2021/01/13 09:01:05;;;;;;;6.80;3.37;;;;;;;3.11;100.00;100228.78;5085510;28;20291;-74
2021/01/13 09:03:40;;;;;;;8.77;3.60;;;;;;;3.11;100.00;100223.41;5069911;28;20305;-73
2021/01/13 09:06:27;;;;;;;8.73;3.80;;;;;;;3.21;100.00;100218.28;5052098;28;20224;-74
2021/01/13 09:08:59;;;;;;;8.87;3.03;;;;;;;3.26;100.00;100223.75;5069684;28;20198;-74
2021/01/13 09:11:35;;;;;;;5.83;3.00;;;;;;;3.32;100.00;100225.50;5069126;28;20696;-73
2021/01/13 09:14:23;;;;;;;6.53;3.30;;;;;;;3.43;100.00;100227.34;5069759;28;20289;-74
2021/01/13 09:16:55;;;;;;;6.50;2.90;;;;;;;3.43;100.00;100224.69;5069077;28;20218;-78
2021/01/13 09:19:30;;;;;;;5.37;2.90;;;;;;;3.37;100.00;100230.97;5053211;28;20183;-73
2021/01/13 09:21:59;;;;;;;5.03;2.33;;;;;;;3.31;100.00;100224.69;5086085;28;20260;-73
2021/01/13 09:24:25;;;;;;;7.93;2.50;;;;;;;3.28;100.00;100213.59;5035974;28;20430;-73
2021/01/13 09:26:54;;;;;;;5.03;2.23;;;;;;;3.31;100.00;100215.81;5068885;28;20229;-74
2021/01/13 09:29:20;;;;;;;4.53;2.13;;;;;;;3.32;100.00;100209.41;5036847;28;20192;-75
2021/01/13 09:32:09;;;;;;;5.83;2.53;;;;;;;3.43;100.00;100211.25;5069048;28;20226;-73
2021/01/13 09:34:37;;;;;;;6.00;2.67;;;;;;;3.35;100.00;100208.91;5035969;28;20207;-74
2021/01/13 09:37:02;;;;;;;7.67;3.07;;;;;;;3.49;100.00;100217.28;5052002;28;20744;-74
2021/01/13 09:39:38;;;;;;;8.20;2.70;;;;;;;3.48;100.00;100210.28;5053372;28;20193;-73
2021/01/13 09:42:06;;;;;;;10.33;2.10;;;;;;;3.38;100.00;100200.41;5070454;28;20227;-74
2021/01/13 09:44:36;;;;;;;5.03;2.40;;;;;;;3.57;100.00;100200.81;5057700;28;20283;-73
2021/01/13 09:47:21;;;;;;;5.60;1.90;;;;;;;3.49;100.00;100203.84;5078382;28;20269;-73
2021/01/13 09:49:48;;;;;;;3.23;1.50;;;;;;;3.54;100.00;100198.59;5095439;28;20179;-74
2021/01/13 09:52:16;;;;;;;3.27;1.63;;;;;;;3.56;100.00;100190.31;5061683;28;20211;-73
2021/01/13 09:54:48;;;;;;;5.67;2.00;;;;;;;3.62;100.00;100194.72;5060883;28;20199;-74
2021/01/13 09:57:13;;;;;;;4.97;2.00;;;;;;;3.76;100.00;100207.63;5078964;28;20223;-74
2021/01/13 09:59:41;;;;;;;8.33;2.00;;;;;;;3.66;100.00;100204.72;5059169;28;20191;-73
2021/01/13 10:02:09;;;;;;;5.47;2.10;;;;;;;3.63;100.00;100210.59;5089872;28;20219;-73
2021/01/13 10:04:37;;;;;;;2.23;1.80;;;;;;;3.79;100.00;100195.59;5073491;28;20211;-74
2021/01/13 10:07:03;;;;;;;7.63;2.23;;;;;;;3.85;100.00;100190.09;5057108;28;20218;-73
2021/01/13 10:09:36;;;;;;;3.60;1.70;;;;;;;3.70;100.00;100187.13;5058166;28;20190;-74
2021/01/13 10:12:02;;;;;;;4.93;2.07;;;;;;;3.80;100.00;100179.25;5089384;28;20219;-74
2021/01/13 10:14:28;;;;;;;6.73;2.23;;;;;;;3.72;100.00;100174.28;5055919;28;20760;-74
2021/01/13 10:16:57;;;;;;;6.07;1.70;;;;;;;3.76;100.00;100153.13;5072190;28;20222;-73
2021/01/13 10:19:26;;;;;;;8.53;2.10;;;;;;;3.79;100.00;100168.72;5055836;28;20559;-73
2021/01/13 10:21:52;;;;;;;6.40;1.97;;;;;;;3.79;100.00;100185.69;5055491;28;20226;-73
2021/01/13 10:24:18;;;;;;;6.90;2.10;;;;;;;3.97;100.00;100167.47;5055458;28;20218;-73
2021/01/13 10:26:49;;;;;;;4.50;2.70;;;;;;;4.11;100.00;100168.00;5072029;28;20250;-74
2021/01/13 10:29:23;;;;;;;6.90;2.40;;;;;;;4.10;100.00;100155.59;5055735;28;20716;-74
2021/01/13 10:31:49;;;;;;;5.17;1.83;;;;;;;4.18;100.00;100160.59;5055021;28;20226;-73
2021/01/13 10:34:15;;;;;;;6.63;2.23;;;;;;;4.37;100.00;100152.84;5088553;28;20194;-73
2021/01/13 10:36:47;;;;;;;6.60;1.90;;;;;;;4.23;100.00;100151.56;5055070;28;20659;-74
2021/01/13 10:39:16;;;;;;;7.00;2.10;;;;;;;4.23;100.00;100151.56;5088812;28;20232;-73
2021/01/13 10:41:44;;;;;;;6.37;1.90;;;;;;;4.16;100.00;100157.31;5071341;28;20229;-73
2021/01/13 10:44:11;;;;;;;9.07;2.87;;;;;;;4.32;100.00;100144.72;5071559;28;20227;-74
2021/01/13 10:46:53;;;;;;;10.90;4.87;;;;;;;4.46;100.00;100131.75;5071258;28;20696;-74
2021/01/13 10:49:26;;;;;;;7.73;2.13;;;;;;;4.52;100.00;100133.44;5056699;28;20175;-74
2021/01/13 10:51:59;;;;;;;9.20;3.00;;;;;;;4.43;100.00;100127.69;5087990;28;20245;-73
2021/01/13 10:54:26;;;;;;;3.70;1.77;;;;;;;4.33;100.00;100140.97;5055368;28;20233;-73
2021/01/13 10:56:54;;;;;;;5.30;2.23;;;;;;;4.32;100.00;100133.97;5054155;28;20215;-73
2021/01/13 10:59:19;;;;;;;4.77;1.70;;;;;;;4.22;100.00;100112.28;5071839;28;20198;-73
2021/01/13 11:01:49;;;;;;;7.83;2.47;;;;;;;4.41;100.00;100108.28;5071128;28;20273;-73
2021/01/13 11:04:22;;;;;;;13.10;7.90;;;;;;;4.37;100.00;100120.59;5054319;28;20267;-72
2021/01/13 11:06:48;;;;;;;11.63;6.83;;;;;;;4.53;100.00;100117.09;5053213;28;20230;-73
2021/01/13 11:09:17;;;;;;;9.53;3.37;;;;;;;4.55;100.00;100101.53;5072371;28;20573;-72
2021/01/13 11:11:43;;;;;;;13.00;3.30;;;;;;;4.57;100.00;100109.34;5075285;28;20223;-73
2021/01/13 11:14:09;;;;;;;5.43;1.87;;;;;;;4.57;100.00;100112.84;5074176;28;20224;-75
2021/01/13 11:16:35;;;;;;;8.27;2.90;;;;;;;4.54;100.00;100116.00;5056988;28;20297;-73
2021/01/13 11:19:01;;;;;;;5.23;2.60;;;;;;;4.49;100.00;100128.59;5075660;28;20190;-73
2021/01/13 11:21:27;;;;;;;8.37;2.07;;;;;;;4.52;100.00;100109.25;5058501;28;20229;-73
2021/01/13 11:23:54;;;;;;;4.13;1.77;;;;;;;4.52;100.00;100098.50;5091830;28;20213;-74
2021/01/13 11:26:22;;;;;;;6.00;2.10;;;;;;;4.65;100.00;100094.41;5057777;28;20222;-73
2021/01/13 11:28:48;;;;;;;5.07;1.60;;;;;;;4.61;100.00;100085.22;5091783;28;20204;-73
2021/01/13 11:31:17;;;;;;;8.73;2.17;;;;;;;4.66;100.00;100076.41;5074702;28;20259;-73
2021/01/13 11:33:44;;;;;;;4.37;2.80;;;;;;;4.73;100.00;100083.22;5058163;28;20720;-73
2021/01/13 11:36:10;;;;;;;6.67;1.90;;;;;;;4.72;100.00;100081.59;5057001;28;20214;-73
2021/01/13 11:38:50;;;;;;;6.83;1.67;;;;;;;4.79;100.00;100073.34;5085385;28;20272;-72
2021/01/13 11:41:33;;;;;;;7.73;2.80;;;;;;;4.72;100.00;100060.06;5047308;28;20684;-73
2021/01/13 11:44:15;;;;;;;6.17;2.20;;;;;;;4.62;100.00;100043.00;5054362;28;20271;-73